createdAt,value
2018-08-16T00:00:01.576Z,17.02
2018-08-16T00:01:01.599Z,17.22
2018-08-16T00:02:01.615Z,17.26
2018-08-16T00:03:01.660Z,17.30
2018-08-16T00:04:01.654Z,17.39
2018-08-16T00:05:01.673Z,17.44
2018-08-16T00:06:01.691Z,17.38
2018-08-16T00:07:01.716Z,17.20
2018-08-16T00:08:01.755Z,17.02
2018-08-16T00:09:01.751Z,17.15
2018-08-16T00:10:01.770Z,17.16
2018-08-16T00:11:01.788Z,17.30
2018-08-16T00:12:01.809Z,17.26
2018-08-16T00:13:01.828Z,17.38
2018-08-16T00:14:01.847Z,17.30
2018-08-16T00:15:01.871Z,17.33
2018-08-16T00:16:01.889Z,17.41
2018-08-16T00:17:01.932Z,17.15
2018-08-16T00:18:01.944Z,17.12
2018-08-16T00:19:01.946Z,17.15
2018-08-16T00:20:01.965Z,17.22
2018-08-16T00:21:01.987Z,16.89
2018-08-16T00:22:02.007Z,16.84
2018-08-16T00:23:02.040Z,16.74
2018-08-16T00:24:02.043Z,16.66
2018-08-16T00:25:02.065Z,16.43
2018-08-16T00:26:02.082Z,16.31
2018-08-16T00:27:02.108Z,16.24
2018-08-16T00:28:02.125Z,16.15
2018-08-16T00:29:02.143Z,16.24
2018-08-16T00:30:02.179Z,16.32
2018-08-16T00:31:02.183Z,16.26
2018-08-16T00:32:02.201Z,16.15
2018-08-16T00:33:02.220Z,15.98
2018-08-16T00:34:02.241Z,16.01
2018-08-16T00:35:02.263Z,16.05
2018-08-16T00:36:02.276Z,15.90
2018-08-16T00:37:02.299Z,15.82
2018-08-16T00:38:02.318Z,16.08
2018-08-16T00:39:02.345Z,16.09
2018-08-16T00:40:02.353Z,15.94
2018-08-16T00:41:02.376Z,15.80
2018-08-16T00:42:02.393Z,15.98
2018-08-16T00:43:02.419Z,16.00
2018-08-16T00:44:02.435Z,16.08
2018-08-16T00:45:02.454Z,16.04
2018-08-16T00:46:02.471Z,15.98
2018-08-16T00:47:02.504Z,16.02
2018-08-16T00:48:02.513Z,16.00
2018-08-16T00:49:02.530Z,15.97
2018-08-16T00:50:02.549Z,15.95
2018-08-16T00:51:02.569Z,15.90
2018-08-16T00:52:02.589Z,16.05
2018-08-16T00:53:02.609Z,15.98
2018-08-16T00:54:02.631Z,15.98
2018-08-16T00:55:02.648Z,16.02
2018-08-16T00:56:02.671Z,16.24
2018-08-16T00:57:02.688Z,16.17
2018-08-16T00:58:02.705Z,16.28
2018-08-16T00:59:02.721Z,16.21
2018-08-16T01:00:02.746Z,16.31
2018-08-16T01:01:02.762Z,16.21
2018-08-16T01:02:02.779Z,16.28
2018-08-16T01:03:02.800Z,16.35
2018-08-16T01:04:02.823Z,16.13
2018-08-16T01:05:02.842Z,16.39
2018-08-16T01:06:02.861Z,16.31
2018-08-16T01:07:02.877Z,16.24
2018-08-16T01:08:02.897Z,16.29
2018-08-16T01:09:02.923Z,16.26
2018-08-16T01:10:02.938Z,16.21
2018-08-16T01:11:02.957Z,16.28
2018-08-16T01:12:02.975Z,16.28
2018-08-16T01:13:03.005Z,16.08
2018-08-16T01:14:03.013Z,16.16
2018-08-16T01:15:03.032Z,16.08
2018-08-16T01:16:03.052Z,15.97
2018-08-16T01:17:03.072Z,15.77
2018-08-16T01:18:03.090Z,15.95
2018-08-16T01:19:03.111Z,15.95
2018-08-16T01:20:03.150Z,15.98
2018-08-16T01:21:03.148Z,16.13
2018-08-16T01:22:03.166Z,16.12
2018-08-16T01:23:03.187Z,16.29
2018-08-16T01:24:03.215Z,16.35
2018-08-16T01:25:03.226Z,16.16
2018-08-16T01:26:03.243Z,16.33
2018-08-16T01:27:03.265Z,16.17
2018-08-16T01:28:03.290Z,16.16
2018-08-16T01:29:03.301Z,16.15
2018-08-16T01:30:03.324Z,16.33
2018-08-16T01:31:03.341Z,16.42
2018-08-16T01:32:03.361Z,16.38
2018-08-16T01:33:03.382Z,16.35
2018-08-16T01:34:03.398Z,16.46
2018-08-16T01:35:03.418Z,16.32
2018-08-16T01:36:03.442Z,16.38
2018-08-16T01:37:03.487Z,16.53
2018-08-16T01:38:03.475Z,16.57
2018-08-16T01:39:03.495Z,16.46
2018-08-16T01:40:03.513Z,16.43
2018-08-16T01:41:03.537Z,16.50
2018-08-16T01:42:03.552Z,16.46
2018-08-16T01:43:03.572Z,16.49
2018-08-16T01:44:03.591Z,16.35
2018-08-16T01:45:03.610Z,16.41
2018-08-16T01:46:03.629Z,16.38
2018-08-16T01:47:03.653Z,16.47
2018-08-16T01:48:03.667Z,16.50
2018-08-16T01:49:03.687Z,16.43
2018-08-16T01:50:03.713Z,16.51
2018-08-16T01:51:03.737Z,16.60
2018-08-16T01:52:03.744Z,16.66
2018-08-16T01:53:03.765Z,16.61
2018-08-16T01:54:03.785Z,16.72
2018-08-16T01:55:03.803Z,16.72
2018-08-16T01:56:03.819Z,16.69
2018-08-16T01:57:03.840Z,16.60
2018-08-16T01:58:03.864Z,16.61
2018-08-16T01:59:03.883Z,16.61
2018-08-16T02:00:03.898Z,16.61
2018-08-16T02:01:03.916Z,16.53
2018-08-16T02:02:03.945Z,16.50
2018-08-16T02:03:03.956Z,16.35
2018-08-16T02:04:03.975Z,16.26
2018-08-16T02:05:04.045Z,15.86
2018-08-16T02:06:04.014Z,15.95
2018-08-16T02:07:04.033Z,15.92
2018-08-16T02:08:04.051Z,15.83
2018-08-16T02:09:04.071Z,15.82
2018-08-16T02:10:04.097Z,15.80
2018-08-16T02:11:04.123Z,15.95
2018-08-16T02:12:04.130Z,16.08
2018-08-16T02:13:04.160Z,15.90
2018-08-16T02:14:04.170Z,15.80
2018-08-16T02:15:04.329Z,15.65
2018-08-16T02:16:04.207Z,15.52
2018-08-16T02:17:04.223Z,15.58
2018-08-16T02:18:04.248Z,15.73
2018-08-16T02:19:04.277Z,15.64
2018-08-16T02:20:04.283Z,15.57
2018-08-16T02:21:04.300Z,15.59
2018-08-16T02:22:04.320Z,15.44
2018-08-16T02:23:04.337Z,15.39
2018-08-16T02:24:04.357Z,15.54
2018-08-16T02:25:04.388Z,15.54
2018-08-16T02:26:04.399Z,15.75
2018-08-16T02:27:04.417Z,15.92
2018-08-16T02:28:04.434Z,15.82
2018-08-16T02:29:04.455Z,16.01
2018-08-16T02:30:04.475Z,16.12
2018-08-16T02:31:04.495Z,16.10
2018-08-16T02:32:04.513Z,16.16
2018-08-16T02:33:04.535Z,16.21
2018-08-16T02:34:04.550Z,16.29
2018-08-16T02:35:04.572Z,16.31
2018-08-16T02:36:04.590Z,16.33
2018-08-16T02:37:04.606Z,16.16
2018-08-16T02:38:04.626Z,16.08
2018-08-16T02:39:04.646Z,16.24
2018-08-16T02:40:04.664Z,16.33
2018-08-16T02:41:04.680Z,16.35
2018-08-16T02:42:04.704Z,16.38
2018-08-16T02:43:04.724Z,16.31
2018-08-16T02:44:04.740Z,16.23
2018-08-16T02:45:04.758Z,16.31
2018-08-16T02:46:04.780Z,16.35
2018-08-16T02:47:04.798Z,16.24
2018-08-16T02:48:04.820Z,16.26
2018-08-16T02:49:04.838Z,16.24
2018-08-16T02:50:04.854Z,16.32
2018-08-16T02:51:04.874Z,16.20
2018-08-16T02:52:04.894Z,16.35
2018-08-16T02:53:04.921Z,16.35
2018-08-16T02:54:04.933Z,16.36
2018-08-16T02:55:04.951Z,16.47
2018-08-16T02:56:04.972Z,16.47
2018-08-16T02:57:04.990Z,16.49
2018-08-16T02:58:05.012Z,16.49
2018-08-16T02:59:05.036Z,16.43
2018-08-16T03:00:05.050Z,16.41
2018-08-16T03:01:05.066Z,16.46
2018-08-16T03:02:05.084Z,16.36
2018-08-16T03:03:05.103Z,16.46
2018-08-16T03:04:05.125Z,16.38
2018-08-16T03:05:05.142Z,16.38
2018-08-16T03:06:05.219Z,16.33
2018-08-16T03:07:05.183Z,16.33
2018-08-16T03:08:05.197Z,16.20
2018-08-16T03:09:05.225Z,16.24
2018-08-16T03:10:05.240Z,16.36
2018-08-16T03:11:05.255Z,16.47
2018-08-16T03:12:05.272Z,16.42
2018-08-16T03:13:05.295Z,16.35
2018-08-16T03:14:05.316Z,16.29
2018-08-16T03:15:05.336Z,16.12
2018-08-16T03:16:05.351Z,16.26
2018-08-16T03:17:05.368Z,16.38
2018-08-16T03:18:05.389Z,16.38
2018-08-16T03:19:05.405Z,16.43
2018-08-16T03:20:05.435Z,16.46
2018-08-16T03:21:05.448Z,16.39
2018-08-16T03:22:05.465Z,16.31
2018-08-16T03:23:05.486Z,16.09
2018-08-16T03:24:05.505Z,16.21
2018-08-16T03:25:05.521Z,16.24
2018-08-16T03:26:05.543Z,16.31
2018-08-16T03:27:05.560Z,16.38
2018-08-16T03:28:05.578Z,16.15
2018-08-16T03:29:05.601Z,16.13
2018-08-16T03:30:05.622Z,16.42
2018-08-16T03:31:05.638Z,16.43
2018-08-16T03:32:05.659Z,16.33
2018-08-16T03:33:05.677Z,16.41
2018-08-16T03:34:05.696Z,16.41
2018-08-16T03:35:05.712Z,16.41
2018-08-16T03:36:05.734Z,16.43
2018-08-16T03:37:05.752Z,16.39
2018-08-16T03:38:05.773Z,16.51
2018-08-16T03:39:05.791Z,16.58
2018-08-16T03:40:05.816Z,16.49
2018-08-16T03:41:05.827Z,16.49
2018-08-16T03:42:05.850Z,16.54
2018-08-16T03:43:05.876Z,16.53
2018-08-16T03:44:05.885Z,16.38
2018-08-16T03:45:05.912Z,16.47
2018-08-16T03:46:05.923Z,16.43
2018-08-16T03:47:05.942Z,16.51
2018-08-16T03:48:06.011Z,16.36
2018-08-16T03:49:05.983Z,16.38
2018-08-16T03:50:06.001Z,16.23
2018-08-16T03:51:06.020Z,16.29
2018-08-16T03:52:06.038Z,16.04
2018-08-16T03:53:06.059Z,16.09
2018-08-16T03:54:06.075Z,16.31
2018-08-16T03:55:06.095Z,16.08
2018-08-16T03:56:06.115Z,16.12
2018-08-16T03:57:06.137Z,16.13
2018-08-16T03:58:06.153Z,16.20
2018-08-16T03:59:06.171Z,16.01
2018-08-16T04:00:06.189Z,16.33
2018-08-16T04:01:06.209Z,16.35
2018-08-16T04:02:06.229Z,16.43
2018-08-16T04:03:06.249Z,16.41
2018-08-16T04:04:06.267Z,16.32
2018-08-16T04:05:06.288Z,16.58
2018-08-16T04:06:06.310Z,16.60
2018-08-16T04:07:06.329Z,16.64
2018-08-16T04:08:06.349Z,16.49
2018-08-16T04:09:06.364Z,16.43
2018-08-16T04:10:06.384Z,16.54
2018-08-16T04:11:06.404Z,16.75
2018-08-16T04:12:06.430Z,16.78
2018-08-16T04:13:06.442Z,16.96
2018-08-16T04:14:06.479Z,16.93
2018-08-16T04:15:06.595Z,16.75
2018-08-16T04:16:06.499Z,16.75
2018-08-16T04:17:06.520Z,16.86
2018-08-16T04:18:06.536Z,16.86
2018-08-16T04:19:06.557Z,17.04
2018-08-16T04:20:06.582Z,16.76
2018-08-16T04:21:06.596Z,16.71
2018-08-16T04:22:06.613Z,16.89
2018-08-16T04:23:06.633Z,16.86
2018-08-16T04:24:06.767Z,17.05
2018-08-16T04:25:06.679Z,16.94
2018-08-16T04:26:06.691Z,16.79
2018-08-16T04:27:06.712Z,16.90
2018-08-16T04:28:06.728Z,16.99
2018-08-16T04:29:06.792Z,17.06
2018-08-16T04:30:06.771Z,17.14
2018-08-16T04:31:06.790Z,17.09
2018-08-16T04:32:06.843Z,17.11
2018-08-16T04:33:06.830Z,17.26
2018-08-16T04:34:06.848Z,17.22
2018-08-16T04:35:06.916Z,17.19
2018-08-16T04:36:06.884Z,17.20
2018-08-16T04:37:06.911Z,17.29
2018-08-16T04:38:06.924Z,17.19
2018-08-16T04:39:06.951Z,17.27
2018-08-16T04:40:06.969Z,17.33
2018-08-16T04:41:06.998Z,17.38
2018-08-16T04:42:07.072Z,17.26
2018-08-16T04:43:07.022Z,16.90
2018-08-16T04:44:07.039Z,16.74
2018-08-16T04:45:07.059Z,16.83
2018-08-16T04:46:07.079Z,16.71
2018-08-16T04:47:07.106Z,16.72
2018-08-16T04:48:07.116Z,16.57
2018-08-16T04:49:07.136Z,16.78
2018-08-16T04:50:07.159Z,16.60
2018-08-16T04:51:07.179Z,16.33
2018-08-16T04:52:07.201Z,16.66
2018-08-16T04:53:07.217Z,16.61
2018-08-16T04:54:07.237Z,16.58
2018-08-16T04:55:07.259Z,16.65
2018-08-16T04:56:07.276Z,16.72
2018-08-16T04:57:07.298Z,17.04
2018-08-16T04:58:07.317Z,17.38
2018-08-16T04:59:07.336Z,17.52
2018-08-16T05:00:07.353Z,17.38
2018-08-16T05:01:07.381Z,17.23
2018-08-16T05:02:07.393Z,17.70
2018-08-16T05:03:07.418Z,17.98
2018-08-16T05:04:07.435Z,18.03
2018-08-16T05:05:07.473Z,18.38
2018-08-16T05:06:07.475Z,18.70
2018-08-16T05:07:07.496Z,19.49
2018-08-16T05:08:07.512Z,19.49
2018-08-16T05:09:07.533Z,19.85
2018-08-16T05:10:07.556Z,20.48
2018-08-16T05:11:07.658Z,20.97
2018-08-16T05:12:07.596Z,21.32
2018-08-16T05:13:07.617Z,21.00
2018-08-16T05:14:07.645Z,21.21
2018-08-16T05:15:07.662Z,21.42
2018-08-16T05:16:07.685Z,21.66
2018-08-16T05:17:07.743Z,22.29
2018-08-16T05:18:07.728Z,22.63
2018-08-16T05:19:07.754Z,22.75
2018-08-16T05:20:07.772Z,23.03
2018-08-16T05:21:07.796Z,23.40
2018-08-16T05:22:07.818Z,23.34
2018-08-16T05:23:07.839Z,23.48
2018-08-16T05:24:07.863Z,23.77
2018-08-16T05:25:07.888Z,24.23
2018-08-16T05:26:07.907Z,24.23
2018-08-16T05:27:07.931Z,24.73
2018-08-16T05:28:07.955Z,24.18
2018-08-16T05:29:07.980Z,23.68
2018-08-16T05:30:07.999Z,23.48
2018-08-16T05:31:08.029Z,23.71
2018-08-16T05:32:08.047Z,23.87
2018-08-16T05:33:08.073Z,24.14
2018-08-16T05:34:08.098Z,24.30
2018-08-16T05:35:08.118Z,24.20
2018-08-16T05:36:08.142Z,24.05
2018-08-16T05:37:08.165Z,23.99
2018-08-16T05:38:08.192Z,23.66
2018-08-16T05:39:08.226Z,23.12
2018-08-16T05:40:08.241Z,23.21
2018-08-16T05:41:08.268Z,22.83
2018-08-16T05:42:08.438Z,23.21
2018-08-16T05:43:08.461Z,23.54
2018-08-16T05:44:08.336Z,23.86
2018-08-16T05:45:08.366Z,23.74
2018-08-16T05:46:08.392Z,23.93
2018-08-16T05:47:08.414Z,24.45
2018-08-16T05:48:08.438Z,24.76
2018-08-16T05:49:08.462Z,25.22
2018-08-16T05:50:08.489Z,25.53
2018-08-16T05:51:08.512Z,25.43
2018-08-16T05:52:08.538Z,25.11
2018-08-16T05:53:08.567Z,25.25
2018-08-16T05:54:08.591Z,25.31
2018-08-16T05:55:08.619Z,25.54
2018-08-16T05:56:08.647Z,25.75
2018-08-16T05:57:08.668Z,25.91
2018-08-16T05:58:08.694Z,26.06
2018-08-16T05:59:08.722Z,26.59
2018-08-16T06:00:08.752Z,26.99
2018-08-16T06:01:08.772Z,26.74
2018-08-16T06:02:08.800Z,26.60
2018-08-16T06:03:08.831Z,26.56
2018-08-16T06:04:08.852Z,26.41
2018-08-16T06:05:08.884Z,26.68
2018-08-16T06:06:08.910Z,26.59
2018-08-16T06:07:08.930Z,27.05
2018-08-16T06:08:08.966Z,26.93
2018-08-16T06:09:08.994Z,26.75
2018-08-16T06:10:09.021Z,26.62
2018-08-16T06:11:09.046Z,26.84
2018-08-16T06:12:09.069Z,27.73
2018-08-16T06:13:09.137Z,27.32
2018-08-16T06:14:09.124Z,26.84
2018-08-16T06:15:09.153Z,26.34
2018-08-16T06:16:09.181Z,26.06
2018-08-16T06:17:09.204Z,26.45
2018-08-16T06:18:09.234Z,26.83
2018-08-16T06:19:09.266Z,27.35
2018-08-16T06:20:09.287Z,26.60
2018-08-16T06:21:09.313Z,26.78
2018-08-16T06:22:09.337Z,27.32
2018-08-16T06:23:09.366Z,27.95
2018-08-16T06:24:09.446Z,26.89
2018-08-16T06:25:09.427Z,27.25
2018-08-16T06:26:09.449Z,26.97
2018-08-16T06:27:09.547Z,26.92
2018-08-16T06:28:09.506Z,26.70
2018-08-16T06:29:09.535Z,26.83
2018-08-16T06:30:09.559Z,26.84
2018-08-16T06:31:09.670Z,27.32
2018-08-16T06:32:09.620Z,27.60
2018-08-16T06:33:09.643Z,27.86
2018-08-16T06:34:09.671Z,27.36
2018-08-16T06:35:09.699Z,27.52
2018-08-16T06:36:09.730Z,27.12
2018-08-16T06:37:09.755Z,27.42
2018-08-16T06:38:09.784Z,27.95
2018-08-16T06:39:09.811Z,27.55
2018-08-16T06:40:09.840Z,27.29
2018-08-16T06:41:09.872Z,27.63
2018-08-16T06:42:09.895Z,27.60
2018-08-16T06:43:09.932Z,28.85
2018-08-16T06:44:09.951Z,28.38
2018-08-16T06:45:09.979Z,27.89
2018-08-16T06:46:10.031Z,28.14
2018-08-16T06:47:10.035Z,27.83
2018-08-16T06:48:10.065Z,27.18
2018-08-16T06:49:10.094Z,27.40
2018-08-16T06:50:10.121Z,27.17
2018-08-16T06:51:10.147Z,26.68
2018-08-16T06:52:10.177Z,27.51
2018-08-16T06:53:10.205Z,27.58
2018-08-16T06:54:10.232Z,27.80
2018-08-16T06:55:10.262Z,28.74
2018-08-16T06:56:10.288Z,28.84
2018-08-16T06:57:10.321Z,28.63
2018-08-16T06:58:10.408Z,29.02
2018-08-16T06:59:10.372Z,29.27
2018-08-16T07:00:10.399Z,29.08
2018-08-16T07:01:10.427Z,29.36
2018-08-16T07:02:10.578Z,29.47
2018-08-16T07:03:10.489Z,29.66
2018-08-16T07:04:10.514Z,29.63
2018-08-16T07:05:10.564Z,29.41
2018-08-16T07:06:10.612Z,29.44
2018-08-16T07:07:10.600Z,30.44
2018-08-16T07:08:10.631Z,30.34
2018-08-16T07:09:10.656Z,29.66
2018-08-16T07:10:10.687Z,29.45
2018-08-16T07:11:10.714Z,30.21
2018-08-16T07:12:10.850Z,29.76
2018-08-16T07:13:10.768Z,30.48
2018-08-16T07:14:10.803Z,31.09
2018-08-16T07:15:10.863Z,30.54
2018-08-16T07:16:10.857Z,30.00
2018-08-16T07:17:10.883Z,31.00
2018-08-16T07:18:10.915Z,31.55
2018-08-16T07:19:10.950Z,32.37
2018-08-16T07:20:10.970Z,32.40
2018-08-16T07:21:11.090Z,33.57
2018-08-16T07:22:11.030Z,34.05
2018-08-16T07:23:11.061Z,32.55
2018-08-16T07:24:11.083Z,33.43
2018-08-16T07:25:11.116Z,32.21
2018-08-16T07:26:11.147Z,32.46
2018-08-16T07:27:11.176Z,32.40
2018-08-16T07:28:11.209Z,32.87
2018-08-16T07:29:11.236Z,33.14
2018-08-16T07:30:11.268Z,33.17
2018-08-16T07:31:11.294Z,33.40
2018-08-16T07:32:11.323Z,33.84
2018-08-16T07:33:11.361Z,32.53
2018-08-16T07:34:11.389Z,31.81
2018-08-16T07:35:11.419Z,32.26
2018-08-16T07:36:11.456Z,32.29
2018-08-16T07:37:11.474Z,33.23
2018-08-16T07:38:11.524Z,34.21
2018-08-16T07:39:11.538Z,34.18
2018-08-16T07:40:11.563Z,33.62
2018-08-16T07:41:11.630Z,34.57
2018-08-16T07:42:11.630Z,33.45
2018-08-16T07:43:11.655Z,34.78
2018-08-16T07:44:11.685Z,34.27
2018-08-16T07:45:11.719Z,34.06
2018-08-16T07:46:11.836Z,32.64
2018-08-16T07:47:11.778Z,32.51
2018-08-16T07:48:12.651Z,31.84
2018-08-16T07:49:11.840Z,31.18
2018-08-16T07:50:11.892Z,31.77
2018-08-16T07:51:12.014Z,31.54
2018-08-16T07:52:12.001Z,31.70
2018-08-16T07:53:11.960Z,31.46
2018-08-16T07:54:11.987Z,30.18
2018-08-16T07:55:12.038Z,31.59
2018-08-16T07:56:12.046Z,32.67
2018-08-16T07:57:12.082Z,32.45
2018-08-16T07:58:12.109Z,31.43
2018-08-16T07:59:12.139Z,31.58
2018-08-16T08:00:12.170Z,31.17
2018-08-16T08:01:12.201Z,31.93
2018-08-16T08:02:12.238Z,31.55
2018-08-16T08:03:12.304Z,31.73
2018-08-16T08:04:12.294Z,31.54
2018-08-16T08:05:12.321Z,31.46
2018-08-16T08:06:12.351Z,32.14
2018-08-16T08:07:12.494Z,32.64
2018-08-16T08:08:12.427Z,32.09
2018-08-16T08:09:12.673Z,31.42
2018-08-16T08:10:12.477Z,32.07
2018-08-16T08:11:12.534Z,32.19
2018-08-16T08:12:12.523Z,31.93
2018-08-16T08:13:12.560Z,31.89
2018-08-16T08:14:12.650Z,32.56
2018-08-16T08:15:12.612Z,32.59
2018-08-16T08:16:12.643Z,31.58
2018-08-16T08:17:12.671Z,32.12
2018-08-16T08:18:12.728Z,31.81
2018-08-16T08:19:12.858Z,32.08
2018-08-16T08:20:12.765Z,32.65
2018-08-16T08:21:12.788Z,31.78
2018-08-16T08:22:12.815Z,31.89
2018-08-16T08:23:12.845Z,31.97
2018-08-16T08:24:12.875Z,32.03
2018-08-16T08:25:12.925Z,31.96
2018-08-16T08:26:12.939Z,31.96
2018-08-16T08:27:12.959Z,32.53
2018-08-16T08:28:12.989Z,32.58
2018-08-16T08:29:13.022Z,31.93
2018-08-16T08:30:13.050Z,32.21
2018-08-16T08:31:13.084Z,32.09
2018-08-16T08:32:13.105Z,32.29
2018-08-16T08:33:13.167Z,31.10
2018-08-16T08:34:13.170Z,30.90
2018-08-16T08:35:13.197Z,30.55
2018-08-16T08:36:13.215Z,31.00
2018-08-16T08:37:13.240Z,31.18
2018-08-16T08:38:13.268Z,30.57
2018-08-16T08:39:13.294Z,29.90
2018-08-16T08:40:13.323Z,29.66
2018-08-16T08:41:13.347Z,29.23
2018-08-16T08:42:13.374Z,29.10
2018-08-16T08:43:13.402Z,29.04
2018-08-16T08:44:13.423Z,28.70
2018-08-16T08:45:13.451Z,28.41
2018-08-16T08:46:13.478Z,28.38
2018-08-16T08:47:13.501Z,28.25
2018-08-16T08:48:13.525Z,28.25
2018-08-16T08:49:13.549Z,28.30
2018-08-16T08:50:13.589Z,28.10
2018-08-16T08:51:13.611Z,28.19
2018-08-16T08:52:13.631Z,28.27
2018-08-16T08:53:13.655Z,28.41
2018-08-16T08:54:13.680Z,28.63
2018-08-16T08:55:13.701Z,28.48
2018-08-16T08:56:13.730Z,28.35
2018-08-16T08:57:13.751Z,28.52
2018-08-16T08:58:13.777Z,27.95
2018-08-16T08:59:13.802Z,27.63
2018-08-16T09:00:13.825Z,27.71
2018-08-16T09:01:13.865Z,27.93
2018-08-16T09:02:13.873Z,28.26
2018-08-16T09:03:13.905Z,28.56
2018-08-16T09:04:13.921Z,28.64
2018-08-16T09:05:13.945Z,28.85
2018-08-16T09:06:13.969Z,28.94
2018-08-16T09:07:14.021Z,29.54
2018-08-16T09:08:14.022Z,29.42
2018-08-16T09:09:14.044Z,29.57
2018-08-16T09:10:14.070Z,29.73
2018-08-16T09:11:14.096Z,29.65
2018-08-16T09:12:14.119Z,29.26
2018-08-16T09:13:14.170Z,29.29
2018-08-16T09:14:14.171Z,29.39
2018-08-16T09:15:14.192Z,29.22
2018-08-16T09:16:14.227Z,28.98
2018-08-16T09:17:14.272Z,29.56
2018-08-16T09:18:14.281Z,29.31
2018-08-16T09:19:14.296Z,29.57
2018-08-16T09:20:14.312Z,29.61
2018-08-16T09:21:14.344Z,29.53
2018-08-16T09:22:14.404Z,29.56
2018-08-16T09:23:14.398Z,29.56
2018-08-16T09:24:14.423Z,29.82
2018-08-16T09:25:14.438Z,29.97
2018-08-16T09:26:14.463Z,30.12
2018-08-16T09:27:14.489Z,30.02
2018-08-16T09:28:14.511Z,30.24
2018-08-16T09:29:14.539Z,30.24
2018-08-16T09:30:14.556Z,30.03
2018-08-16T09:31:14.663Z,29.65
2018-08-16T09:32:14.610Z,29.24
2018-08-16T09:33:14.631Z,28.84
2018-08-16T09:34:14.657Z,28.51
2018-08-16T09:35:14.683Z,28.23
2018-08-16T09:36:14.707Z,28.39
2018-08-16T09:37:14.730Z,28.56
2018-08-16T09:38:14.757Z,28.78
2018-08-16T09:39:14.832Z,28.75
2018-08-16T09:40:14.806Z,28.52
2018-08-16T09:41:14.830Z,28.78
2018-08-16T09:42:14.854Z,29.23
2018-08-16T09:43:14.878Z,29.08
2018-08-16T09:44:14.899Z,28.41
2018-08-16T09:45:15.007Z,28.39
2018-08-16T09:46:14.951Z,28.35
2018-08-16T09:47:14.979Z,28.44
2018-08-16T09:48:15.001Z,28.42
2018-08-16T09:49:15.025Z,28.60
2018-08-16T09:50:15.048Z,28.76
2018-08-16T09:51:15.131Z,28.98
2018-08-16T09:52:15.096Z,28.57
2018-08-16T09:53:15.121Z,28.66
2018-08-16T09:54:15.151Z,28.94
2018-08-16T09:55:15.168Z,29.01
2018-08-16T09:56:15.193Z,28.88
2018-08-16T09:57:15.223Z,28.60
2018-08-16T09:58:15.244Z,28.63
2018-08-16T09:59:15.263Z,29.17
2018-08-16T10:00:15.291Z,28.67
2018-08-16T10:01:15.316Z,28.11
2018-08-16T10:02:15.456Z,28.45
2018-08-16T10:03:15.364Z,28.88
2018-08-16T10:04:15.390Z,29.14
2018-08-16T10:05:15.412Z,29.01
2018-08-16T10:06:15.432Z,28.82
2018-08-16T10:07:15.463Z,28.64
2018-08-16T10:08:15.483Z,28.69
2018-08-16T10:09:15.509Z,29.08
2018-08-16T10:10:15.658Z,28.89
2018-08-16T10:11:15.555Z,28.91
2018-08-16T10:12:15.579Z,28.79
2018-08-16T10:13:15.604Z,28.81
2018-08-16T10:14:15.627Z,29.39
2018-08-16T10:15:15.655Z,29.65
2018-08-16T10:16:15.678Z,29.08
2018-08-16T10:17:15.700Z,29.16
2018-08-16T10:18:15.725Z,28.97
2018-08-16T10:19:15.751Z,28.93
2018-08-16T10:20:15.781Z,29.07
2018-08-16T10:21:15.801Z,29.36
2018-08-16T10:22:15.824Z,29.34
2018-08-16T10:23:15.846Z,29.53
2018-08-16T10:24:15.875Z,29.56
2018-08-16T10:25:15.902Z,29.45
2018-08-16T10:26:15.924Z,29.04
2018-08-16T10:27:15.948Z,28.75
2018-08-16T10:28:15.972Z,28.64
2018-08-16T10:29:16.005Z,28.84
2018-08-16T10:30:16.015Z,29.20
2018-08-16T10:31:16.047Z,28.93
2018-08-16T10:32:16.070Z,28.49
2018-08-16T10:33:16.087Z,28.72
2018-08-16T10:34:16.115Z,28.98
2018-08-16T10:35:16.138Z,28.85
2018-08-16T10:36:16.163Z,29.26
2018-08-16T10:37:16.254Z,29.45
2018-08-16T10:38:16.212Z,29.60
2018-08-16T10:39:16.236Z,29.82
2018-08-16T10:40:16.258Z,30.06
2018-08-16T10:41:16.284Z,30.03
2018-08-16T10:42:16.310Z,29.84
2018-08-16T10:43:16.332Z,29.94
2018-08-16T10:44:16.355Z,29.63
2018-08-16T10:45:16.383Z,29.69
2018-08-16T10:46:16.404Z,29.98
2018-08-16T10:47:16.430Z,30.05
2018-08-16T10:48:16.452Z,30.35
2018-08-16T10:49:16.478Z,29.68
2018-08-16T10:50:16.501Z,29.47
2018-08-16T10:51:16.531Z,29.63
2018-08-16T10:52:16.553Z,29.41
2018-08-16T10:53:16.610Z,29.60
2018-08-16T10:54:16.598Z,29.68
2018-08-16T10:55:16.627Z,29.66
2018-08-16T10:56:16.647Z,29.94
2018-08-16T10:57:16.674Z,29.79
2018-08-16T10:58:16.700Z,29.65
2018-08-16T10:59:16.730Z,29.31
2018-08-16T11:00:16.747Z,29.51
2018-08-16T11:01:16.828Z,29.82
2018-08-16T11:02:16.798Z,29.36
2018-08-16T11:03:16.824Z,29.61
2018-08-16T11:04:16.847Z,29.76
2018-08-16T11:05:16.869Z,29.94
2018-08-16T11:06:16.894Z,30.21
2018-08-16T11:07:16.916Z,29.97
2018-08-16T11:08:16.942Z,29.76
2018-08-16T11:09:16.964Z,29.82
2018-08-16T11:10:16.991Z,30.23
2018-08-16T11:11:17.015Z,29.87
2018-08-16T11:12:17.039Z,29.95
2018-08-16T11:13:17.070Z,30.23
2018-08-16T11:14:17.097Z,30.47
2018-08-16T11:15:17.115Z,30.81
2018-08-16T11:16:17.139Z,30.83
2018-08-16T11:17:17.161Z,31.14
2018-08-16T11:18:17.190Z,30.83
2018-08-16T11:19:17.215Z,30.92
2018-08-16T11:20:17.241Z,30.50
2018-08-16T11:21:17.261Z,30.37
2018-08-16T11:22:17.285Z,30.78
2018-08-16T11:23:17.312Z,30.63
2018-08-16T11:24:17.338Z,30.91
2018-08-16T11:25:17.364Z,31.39
2018-08-16T11:26:17.387Z,31.54
2018-08-16T11:27:17.476Z,31.18
2018-08-16T11:28:17.436Z,30.35
2018-08-16T11:29:17.467Z,30.16
2018-08-16T11:30:17.483Z,29.98
2018-08-16T11:31:17.512Z,30.35
2018-08-16T11:32:17.537Z,30.46
2018-08-16T11:33:17.556Z,30.25
2018-08-16T11:34:17.580Z,30.28
2018-08-16T11:35:17.608Z,30.65
2018-08-16T11:36:17.634Z,30.59
2018-08-16T11:37:17.729Z,30.50
2018-08-16T11:38:17.805Z,30.63
2018-08-16T11:39:17.706Z,30.32
2018-08-16T11:40:17.733Z,30.39
2018-08-16T11:41:17.755Z,30.39
2018-08-16T11:42:17.804Z,30.19
2018-08-16T11:43:17.807Z,30.39
2018-08-16T11:44:17.829Z,30.10
2018-08-16T11:45:17.859Z,30.03
2018-08-16T11:46:17.882Z,30.08
2018-08-16T11:47:17.902Z,29.76
2018-08-16T11:48:17.934Z,30.25
2018-08-16T11:49:17.955Z,30.25
2018-08-16T11:50:17.978Z,30.46
2018-08-16T11:51:18.002Z,30.50
2018-08-16T11:52:18.027Z,30.34
2018-08-16T11:53:18.061Z,30.46
2018-08-16T11:54:18.078Z,30.57
2018-08-16T11:55:18.102Z,30.47
2018-08-16T11:56:18.123Z,30.16
2018-08-16T11:57:18.150Z,30.23
2018-08-16T11:58:18.176Z,30.32
2018-08-16T11:59:18.200Z,30.65
2018-08-16T12:00:18.225Z,30.97
2018-08-16T12:01:18.249Z,30.62
2018-08-16T12:02:18.277Z,30.19
2018-08-16T12:03:18.300Z,30.30
2018-08-16T12:04:18.326Z,30.43
2018-08-16T12:05:18.354Z,30.59
2018-08-16T12:06:18.430Z,30.50
2018-08-16T12:07:18.399Z,30.62
2018-08-16T12:08:18.424Z,30.72
2018-08-16T12:09:18.450Z,31.15
2018-08-16T12:10:18.472Z,31.24
2018-08-16T12:11:18.494Z,30.63
2018-08-16T12:12:18.520Z,30.83
2018-08-16T12:13:18.548Z,30.72
2018-08-16T12:14:18.570Z,30.75
2018-08-16T12:15:18.622Z,30.77
2018-08-16T12:16:18.619Z,30.81
2018-08-16T12:17:18.649Z,30.83
2018-08-16T12:18:18.671Z,30.54
2018-08-16T12:19:18.696Z,31.02
2018-08-16T12:20:18.719Z,30.81
2018-08-16T12:21:18.745Z,30.85
2018-08-16T12:22:18.771Z,30.84
2018-08-16T12:23:18.794Z,30.85
2018-08-16T12:24:18.819Z,31.05
2018-08-16T12:25:18.844Z,30.88
2018-08-16T12:26:18.875Z,30.46
2018-08-16T12:27:18.897Z,30.85
2018-08-16T12:28:18.915Z,31.43
2018-08-16T12:29:18.942Z,31.27
2018-08-16T12:30:18.969Z,31.17
2018-08-16T12:31:18.992Z,31.22
2018-08-16T12:32:19.016Z,31.62
2018-08-16T12:33:19.042Z,31.58
2018-08-16T12:34:19.068Z,31.70
2018-08-16T12:35:19.092Z,31.96
2018-08-16T12:36:19.120Z,31.90
2018-08-16T12:37:19.142Z,32.08
2018-08-16T12:38:19.170Z,32.16
2018-08-16T12:39:19.192Z,32.56
2018-08-16T12:40:19.223Z,32.65
2018-08-16T12:41:19.240Z,32.63
2018-08-16T12:42:19.310Z,32.74
2018-08-16T12:43:19.292Z,32.16
2018-08-16T12:44:19.315Z,32.12
2018-08-16T12:45:19.347Z,32.43
2018-08-16T12:46:19.416Z,32.43
2018-08-16T12:47:19.405Z,32.63
2018-08-16T12:48:19.418Z,32.29
2018-08-16T12:49:19.451Z,32.27
2018-08-16T12:50:19.471Z,32.18
2018-08-16T12:51:19.493Z,32.29
2018-08-16T12:52:19.518Z,32.58